Val Verda, Utah
Current Conditions -  °F | °C
As of 1:53 PM on Friday 24 Oct 2014 (Local Time) from KSLC Reporting Station
Few Clouds Few Clouds  
Wind Chill: 77°   Ceiling: Unl
Heat Index: 77°   Visibility: 10mi
Dew Point: 29°   Wind: 17mph
Humidity: 17%   Direction: 180°S
Pressure: 30.12"   Gusts: NA
Location:  40.8715°N, 111.831°W
Report Text: KSLC 241953Z 18015KT 10SM FEW250 25/M02 A3012 RMK AO2 SLP160 T02501017
Loading
Personal Weather Stations






























Interactive Weather Map
Tropical Storm Tracking
New forecast layout! Learn more

10-Day Weather Forecast

Advertisements
Track Severe Weather on mobile